ANE1OP LEMD-LEXJ
Flight info
| Callsign | ANE1OP |
|---|---|
| Flight time | N/A |
| Altitude | 26000 |
| Route | SIE N865 UNGAS/N0365F240 Y753 EMANU |
| Aircraft | CRJ9/M-SDFGIRWY/S |
Departure
| Time | 2026-05-05 15:34 |
|---|---|
| Airport | Adolfo Suárez Madrid–Barajas Airport (LEMD) |
Arrival
| Time | N/A |
|---|---|
| Airport | Seve Ballesteros-Santander Airport (LEXJ) |
| Time | Latitude | Longitude | Altitude | Speed | Heading |
|---|---|---|---|---|---|
| 2026-05-05 15:26 | 40.49544 | -3.58740 | 1979 ft | 0 kts | 269° |
| 2026-05-05 15:27 | 40.49544 | -3.58741 | 1979 ft | 0 kts | 271° |
| 2026-05-05 15:27 | 40.49544 | -3.58749 | 1983 ft | 2 kts | 275° |
| 2026-05-05 15:27 | 40.49542 | -3.58787 | 1980 ft | 6 kts | 250° |
| 2026-05-05 15:27 | 40.49506 | -3.58818 | 1979 ft | 8 kts | 186° |
| 2026-05-05 15:28 | 40.49439 | -3.58820 | 1979 ft | 11 kts | 179° |
| 2026-05-05 15:28 | 40.49353 | -3.58818 | 1979 ft | 13 kts | 179° |
| 2026-05-05 15:28 | 40.49269 | -3.58804 | 1980 ft | 12 kts | 143° |
| 2026-05-05 15:28 | 40.49250 | -3.58719 | 1979 ft | 10 kts | 93° |
| 2026-05-05 15:29 | 40.49245 | -3.58596 | 1979 ft | 23 kts | 92° |
| 2026-05-05 15:29 | 40.49263 | -3.58410 | 1980 ft | 17 kts | 104° |
| 2026-05-05 15:29 | 40.49249 | -3.58270 | 1979 ft | 15 kts | 91° |
| 2026-05-05 15:29 | 40.49247 | -3.58145 | 1979 ft | 12 kts | 91° |
| 2026-05-05 15:30 | 40.49246 | -3.58036 | 1979 ft | 12 kts | 90° |
| 2026-05-05 15:30 | 40.49245 | -3.57916 | 1979 ft | 14 kts | 90° |
| 2026-05-05 15:30 | 40.49246 | -3.57781 | 1979 ft | 15 kts | 90° |
| 2026-05-05 15:30 | 40.49250 | -3.57667 | 1979 ft | 0 kts | 82° |
| 2026-05-05 15:32 | 40.49251 | -3.57664 | 1979 ft | 3 kts | 82° |
| 2026-05-05 15:32 | 40.49288 | -3.57555 | 1981 ft | 22 kts | 53° |
| 2026-05-05 15:33 | 40.49450 | -3.57469 | 1982 ft | 28 kts | 2° |
| 2026-05-05 15:33 | 40.49872 | -3.57468 | 1979 ft | 98 kts | 360° |
| 2026-05-05 15:33 | 40.50782 | -3.57481 | 1979 ft | 161 kts | 358° |
| 2026-05-05 15:33 | 40.52011 | -3.57438 | 2419 ft | 180 kts | 8° |
| 2026-05-05 15:34 | 40.53225 | -3.57306 | 3462 ft | 172 kts | 1° |
| 2026-05-05 15:34 | 40.54353 | -3.57374 | 4618 ft | 150 kts | 352° |
| 2026-05-05 15:34 | 40.55367 | -3.57458 | 5445 ft | 150 kts | 351° |
| 2026-05-05 15:34 | 40.56457 | -3.57584 | 6015 ft | 159 kts | 349° |